sensor_id;sensor_type;location;lat;lon;timestamp;P1;durP1;ratioP1;P2;durP2;ratioP2
54683;SDS011;40582;53.100;6.686;2023-02-13T00:01:26;20.55;;;15.18;;
54683;SDS011;40582;53.100;6.686;2023-02-13T00:03:52;23.25;;;15.63;;
54683;SDS011;40582;53.100;6.686;2023-02-13T00:06:17;21.23;;;15.88;;
54683;SDS011;40582;53.100;6.686;2023-02-13T00:08:43;20.50;;;14.60;;
54683;SDS011;40582;53.100;6.686;2023-02-13T00:11:09;25.05;;;15.18;;
54683;SDS011;40582;53.100;6.686;2023-02-13T00:13:34;21.27;;;14.82;;
54683;SDS011;40582;53.100;6.686;2023-02-13T00:16:01;23.23;;;15.55;;
54683;SDS011;40582;53.100;6.686;2023-02-13T00:18:27;22.13;;;15.25;;
54683;SDS011;40582;53.100;6.686;2023-02-13T00:21:02;25.25;;;14.68;;
54683;SDS011;40582;53.100;6.686;2023-02-13T00:23:29;23.58;;;15.80;;
54683;SDS011;40582;53.100;6.686;2023-02-13T00:25:56;21.85;;;16.10;;
54683;SDS011;40582;53.100;6.686;2023-02-13T00:28:22;19.25;;;15.38;;
54683;SDS011;40582;53.100;6.686;2023-02-13T00:30:48;21.98;;;15.65;;
54683;SDS011;40582;53.100;6.686;2023-02-13T00:33:14;20.27;;;15.40;;
54683;SDS011;40582;53.100;6.686;2023-02-13T00:35:39;22.33;;;16.05;;
54683;SDS011;40582;53.100;6.686;2023-02-13T00:38:05;21.63;;;15.93;;
54683;SDS011;40582;53.100;6.686;2023-02-13T00:40:31;23.13;;;16.88;;
54683;SDS011;40582;53.100;6.686;2023-02-13T00:42:56;22.25;;;17.08;;
54683;SDS011;40582;53.100;6.686;2023-02-13T00:45:22;22.20;;;16.75;;
54683;SDS011;40582;53.100;6.686;2023-02-13T00:47:48;27.23;;;17.77;;
54683;SDS011;40582;53.100;6.686;2023-02-13T00:50:13;28.67;;;19.55;;
54683;SDS011;40582;53.100;6.686;2023-02-13T00:52:39;28.23;;;19.17;;
54683;SDS011;40582;53.100;6.686;2023-02-13T00:55:05;27.23;;;19.27;;
54683;SDS011;40582;53.100;6.686;2023-02-13T00:57:31;29.13;;;19.23;;
54683;SDS011;40582;53.100;6.686;2023-02-13T00:59:57;27.50;;;18.23;;
54683;SDS011;40582;53.100;6.686;2023-02-13T01:02:23;27.33;;;18.48;;
54683;SDS011;40582;53.100;6.686;2023-02-13T01:04:49;29.48;;;19.88;;
54683;SDS011;40582;53.100;6.686;2023-02-13T01:07:15;31.33;;;19.67;;
54683;SDS011;40582;53.100;6.686;2023-02-13T01:09:40;30.67;;;20.08;;
54683;SDS011;40582;53.100;6.686;2023-02-13T01:12:06;29.30;;;18.70;;
54683;SDS011;40582;53.100;6.686;2023-02-13T01:14:32;27.88;;;19.02;;
54683;SDS011;40582;53.100;6.686;2023-02-13T01:16:58;28.92;;;20.38;;
54683;SDS011;40582;53.100;6.686;2023-02-13T01:19:23;32.60;;;20.45;;
54683;SDS011;40582;53.100;6.686;2023-02-13T01:21:49;35.13;;;20.20;;
54683;SDS011;40582;53.100;6.686;2023-02-13T01:24:15;37.17;;;22.58;;
54683;SDS011;40582;53.100;6.686;2023-02-13T01:26:40;35.75;;;21.10;;
54683;SDS011;40582;53.100;6.686;2023-02-13T01:29:06;35.83;;;21.70;;
54683;SDS011;40582;53.100;6.686;2023-02-13T01:31:33;34.63;;;21.05;;
54683;SDS011;40582;53.100;6.686;2023-02-13T01:33:59;30.67;;;20.63;;
54683;SDS011;40582;53.100;6.686;2023-02-13T01:36:25;33.40;;;20.38;;
54683;SDS011;40582;53.100;6.686;2023-02-13T01:38:52;33.30;;;20.58;;
54683;SDS011;40582;53.100;6.686;2023-02-13T01:41:19;32.95;;;21.27;;
54683;SDS011;40582;53.100;6.686;2023-02-13T01:43:47;30.98;;;20.92;;
54683;SDS011;40582;53.100;6.686;2023-02-13T01:46:18;32.10;;;20.10;;
54683;SDS011;40582;53.100;6.686;2023-02-13T01:49:00;31.33;;;20.98;;
54683;SDS011;40582;53.100;6.686;2023-02-13T01:51:33;33.33;;;21.33;;
54683;SDS011;40582;53.100;6.686;2023-02-13T01:54:05;32.90;;;21.08;;
54683;SDS011;40582;53.100;6.686;2023-02-13T01:56:44;33.13;;;19.40;;
54683;SDS011;40582;53.100;6.686;2023-02-13T01:59:36;29.98;;;19.30;;
54683;SDS011;40582;53.100;6.686;2023-02-13T02:02:04;34.10;;;19.77;;
54683;SDS011;40582;53.100;6.686;2023-02-13T02:04:31;30.25;;;20.73;;
54683;SDS011;40582;53.100;6.686;2023-02-13T02:07:05;32.75;;;20.67;;
54683;SDS011;40582;53.100;6.686;2023-02-13T02:09:35;35.00;;;21.05;;
54683;SDS011;40582;53.100;6.686;2023-02-13T02:14:35;29.52;;;19.48;;
54683;SDS011;40582;53.100;6.686;2023-02-13T02:17:01;33.80;;;21.83;;
54683;SDS011;40582;53.100;6.686;2023-02-13T02:19:36;37.45;;;21.42;;
54683;SDS011;40582;53.100;6.686;2023-02-13T02:31:12;35.67;;;21.98;;
54683;SDS011;40582;53.100;6.686;2023-02-13T02:42:04;35.25;;;21.23;;
54683;SDS011;40582;53.100;6.686;2023-02-13T02:53:28;33.50;;;22.13;;
54683;SDS011;40582;53.100;6.686;2023-02-13T02:58:32;34.23;;;22.03;;
54683;SDS011;40582;53.100;6.686;2023-02-13T03:01:20;36.78;;;22.55;;
54683;SDS011;40582;53.100;6.686;2023-02-13T03:07:22;34.67;;;21.95;;
54683;SDS011;40582;53.100;6.686;2023-02-13T03:09:51;35.13;;;21.55;;
54683;SDS011;40582;53.100;6.686;2023-02-13T03:12:43;39.83;;;23.38;;
54683;SDS011;40582;53.100;6.686;2023-02-13T03:15:31;33.97;;;22.88;;
54683;SDS011;40582;53.100;6.686;2023-02-13T03:17:59;34.38;;;22.13;;
54683;SDS011;40582;53.100;6.686;2023-02-13T03:23:34;36.03;;;22.80;;
54683;SDS011;40582;53.100;6.686;2023-02-13T03:29:32;33.10;;;21.13;;
54683;SDS011;40582;53.100;6.686;2023-02-13T03:38:37;34.45;;;21.90;;
54683;SDS011;40582;53.100;6.686;2023-02-13T03:41:15;33.03;;;20.95;;
54683;SDS011;40582;53.100;6.686;2023-02-13T03:46:32;36.50;;;21.58;;
54683;SDS011;40582;53.100;6.686;2023-02-13T03:49:01;37.17;;;21.95;;
54683;SDS011;40582;53.100;6.686;2023-02-13T03:51:59;37.20;;;21.70;;
54683;SDS011;40582;53.100;6.686;2023-02-13T03:54:34;39.95;;;22.35;;
54683;SDS011;40582;53.100;6.686;2023-02-13T03:57:31;35.13;;;22.13;;
54683;SDS011;40582;53.100;6.686;2023-02-13T04:00:19;36.90;;;22.35;;
54683;SDS011;40582;53.100;6.686;2023-02-13T04:06:05;36.25;;;21.60;;
54683;SDS011;40582;53.100;6.686;2023-02-13T04:08:37;37.60;;;22.23;;
54683;SDS011;40582;53.100;6.686;2023-02-13T04:11:07;35.10;;;21.58;;
54683;SDS011;40582;53.100;6.686;2023-02-13T04:13:51;38.78;;;22.85;;
54683;SDS011;40582;53.100;6.686;2023-02-13T04:16:41;36.80;;;21.98;;
54683;SDS011;40582;53.100;6.686;2023-02-13T04:19:08;37.70;;;21.80;;
54683;SDS011;40582;53.100;6.686;2023-02-13T04:21:35;34.00;;;21.75;;
54683;SDS011;40582;53.100;6.686;2023-02-13T04:24:02;36.70;;;21.65;;
54683;SDS011;40582;53.100;6.686;2023-02-13T04:26:33;35.30;;;22.17;;
54683;SDS011;40582;53.100;6.686;2023-02-13T04:29:01;37.88;;;23.15;;
54683;SDS011;40582;53.100;6.686;2023-02-13T04:31:27;34.35;;;21.33;;
54683;SDS011;40582;53.100;6.686;2023-02-13T04:33:53;33.72;;;21.65;;
54683;SDS011;40582;53.100;6.686;2023-02-13T04:36:18;36.65;;;21.88;;
54683;SDS011;40582;53.100;6.686;2023-02-13T04:38:44;36.72;;;22.58;;
54683;SDS011;40582;53.100;6.686;2023-02-13T04:41:10;34.67;;;20.88;;
54683;SDS011;40582;53.100;6.686;2023-02-13T04:43:36;35.83;;;20.75;;
54683;SDS011;40582;53.100;6.686;2023-02-13T04:46:02;37.03;;;21.88;;
54683;SDS011;40582;53.100;6.686;2023-02-13T04:48:28;37.33;;;22.38;;
54683;SDS011;40582;53.100;6.686;2023-02-13T04:50:54;39.13;;;23.05;;
54683;SDS011;40582;53.100;6.686;2023-02-13T04:53:19;33.13;;;21.13;;
54683;SDS011;40582;53.100;6.686;2023-02-13T04:55:45;33.53;;;21.45;;
54683;SDS011;40582;53.100;6.686;2023-02-13T04:58:11;35.97;;;21.48;;
54683;SDS011;40582;53.100;6.686;2023-02-13T05:00:36;33.80;;;21.17;;
54683;SDS011;40582;53.100;6.686;2023-02-13T05:03:06;34.58;;;21.35;;
54683;SDS011;40582;53.100;6.686;2023-02-13T05:05:33;33.47;;;20.17;;
54683;SDS011;40582;53.100;6.686;2023-02-13T05:07:59;34.67;;;20.27;;
54683;SDS011;40582;53.100;6.686;2023-02-13T05:10:25;36.40;;;20.52;;
54683;SDS011;40582;53.100;6.686;2023-02-13T05:12:50;36.33;;;22.63;;
54683;SDS011;40582;53.100;6.686;2023-02-13T05:15:16;35.58;;;21.10;;
54683;SDS011;40582;53.100;6.686;2023-02-13T05:17:42;39.65;;;22.25;;
54683;SDS011;40582;53.100;6.686;2023-02-13T05:20:09;39.50;;;22.48;;
54683;SDS011;40582;53.100;6.686;2023-02-13T05:22:36;41.22;;;22.25;;
54683;SDS011;40582;53.100;6.686;2023-02-13T05:25:20;37.28;;;23.75;;
54683;SDS011;40582;53.100;6.686;2023-02-13T05:27:45;37.17;;;22.08;;
54683;SDS011;40582;53.100;6.686;2023-02-13T05:30:11;38.88;;;22.77;;
54683;SDS011;40582;53.100;6.686;2023-02-13T05:32:37;36.70;;;21.77;;
54683;SDS011;40582;53.100;6.686;2023-02-13T05:35:03;38.08;;;22.77;;
54683;SDS011;40582;53.100;6.686;2023-02-13T05:37:30;35.40;;;20.30;;
54683;SDS011;40582;53.100;6.686;2023-02-13T05:39:56;36.63;;;20.80;;
54683;SDS011;40582;53.100;6.686;2023-02-13T05:42:21;34.97;;;20.70;;
54683;SDS011;40582;53.100;6.686;2023-02-13T05:44:47;35.90;;;21.00;;
54683;SDS011;40582;53.100;6.686;2023-02-13T05:47:13;35.08;;;21.05;;
54683;SDS011;40582;53.100;6.686;2023-02-13T05:49:38;31.75;;;19.27;;
54683;SDS011;40582;53.100;6.686;2023-02-13T05:52:04;33.90;;;20.05;;
54683;SDS011;40582;53.100;6.686;2023-02-13T05:54:30;31.02;;;19.70;;
54683;SDS011;40582;53.100;6.686;2023-02-13T05:56:55;33.33;;;20.15;;
54683;SDS011;40582;53.100;6.686;2023-02-13T05:59:21;30.52;;;19.20;;
54683;SDS011;40582;53.100;6.686;2023-02-13T06:01:47;29.48;;;18.88;;
54683;SDS011;40582;53.100;6.686;2023-02-13T06:04:12;35.42;;;22.35;;
54683;SDS011;40582;53.100;6.686;2023-02-13T06:06:38;34.15;;;22.00;;
54683;SDS011;40582;53.100;6.686;2023-02-13T06:09:04;31.15;;;20.20;;
54683;SDS011;40582;53.100;6.686;2023-02-13T06:11:29;36.30;;;20.30;;
54683;SDS011;40582;53.100;6.686;2023-02-13T06:13:55;31.13;;;19.15;;
54683;SDS011;40582;53.100;6.686;2023-02-13T06:16:21;32.13;;;19.00;;
54683;SDS011;40582;53.100;6.686;2023-02-13T06:18:46;29.00;;;17.92;;
54683;SDS011;40582;53.100;6.686;2023-02-13T06:21:12;33.17;;;18.90;;
54683;SDS011;40582;53.100;6.686;2023-02-13T06:23:38;33.80;;;19.23;;
54683;SDS011;40582;53.100;6.686;2023-02-13T06:26:04;39.47;;;19.63;;
54683;SDS011;40582;53.100;6.686;2023-02-13T06:28:32;31.63;;;18.80;;
54683;SDS011;40582;53.100;6.686;2023-02-13T06:30:58;30.00;;;19.05;;
54683;SDS011;40582;53.100;6.686;2023-02-13T06:33:24;27.65;;;18.98;;
54683;SDS011;40582;53.100;6.686;2023-02-13T06:35:49;31.63;;;19.42;;
54683;SDS011;40582;53.100;6.686;2023-02-13T06:38:15;27.63;;;19.00;;
54683;SDS011;40582;53.100;6.686;2023-02-13T06:40:45;30.48;;;19.85;;
54683;SDS011;40582;53.100;6.686;2023-02-13T06:43:12;33.17;;;20.30;;
54683;SDS011;40582;53.100;6.686;2023-02-13T06:45:39;30.17;;;20.50;;
54683;SDS011;40582;53.100;6.686;2023-02-13T06:48:05;32.63;;;20.40;;
54683;SDS011;40582;53.100;6.686;2023-02-13T06:50:31;32.28;;;19.67;;
54683;SDS011;40582;53.100;6.686;2023-02-13T06:52:58;29.13;;;19.67;;
54683;SDS011;40582;53.100;6.686;2023-02-13T06:55:24;29.13;;;19.38;;
54683;SDS011;40582;53.100;6.686;2023-02-13T06:57:50;31.63;;;20.42;;
54683;SDS011;40582;53.100;6.686;2023-02-13T07:00:16;31.10;;;21.02;;
54683;SDS011;40582;53.100;6.686;2023-02-13T07:02:43;34.88;;;21.63;;
54683;SDS011;40582;53.100;6.686;2023-02-13T07:05:09;31.05;;;19.65;;
54683;SDS011;40582;53.100;6.686;2023-02-13T07:07:36;35.13;;;21.17;;
54683;SDS011;40582;53.100;6.686;2023-02-13T07:10:04;30.83;;;21.83;;
54683;SDS011;40582;53.100;6.686;2023-02-13T07:12:31;43.40;;;21.63;;
54683;SDS011;40582;53.100;6.686;2023-02-13T07:14:58;31.17;;;21.08;;
54683;SDS011;40582;53.100;6.686;2023-02-13T07:17:24;33.38;;;20.58;;
54683;SDS011;40582;53.100;6.686;2023-02-13T07:19:50;30.50;;;20.15;;
54683;SDS011;40582;53.100;6.686;2023-02-13T07:22:16;36.50;;;21.52;;
54683;SDS011;40582;53.100;6.686;2023-02-13T07:24:42;35.13;;;20.88;;
54683;SDS011;40582;53.100;6.686;2023-02-13T07:27:08;29.10;;;19.83;;
54683;SDS011;40582;53.100;6.686;2023-02-13T07:29:34;30.38;;;20.30;;
54683;SDS011;40582;53.100;6.686;2023-02-13T07:31:59;32.38;;;21.63;;
54683;SDS011;40582;53.100;6.686;2023-02-13T07:34:25;42.58;;;22.70;;
54683;SDS011;40582;53.100;6.686;2023-02-13T07:36:51;33.00;;;22.30;;
54683;SDS011;40582;53.100;6.686;2023-02-13T07:39:16;32.97;;;21.73;;
54683;SDS011;40582;53.100;6.686;2023-02-13T07:41:43;33.50;;;22.20;;
54683;SDS011;40582;53.100;6.686;2023-02-13T07:44:09;34.50;;;21.38;;
54683;SDS011;40582;53.100;6.686;2023-02-13T07:46:35;35.58;;;22.20;;
54683;SDS011;40582;53.100;6.686;2023-02-13T07:49:01;32.03;;;21.05;;
54683;SDS011;40582;53.100;6.686;2023-02-13T07:51:26;34.92;;;21.98;;
54683;SDS011;40582;53.100;6.686;2023-02-13T07:53:53;34.17;;;20.55;;
54683;SDS011;40582;53.100;6.686;2023-02-13T07:56:20;33.95;;;21.48;;
54683;SDS011;40582;53.100;6.686;2023-02-13T07:58:46;38.53;;;22.35;;
54683;SDS011;40582;53.100;6.686;2023-02-13T08:01:13;35.88;;;22.52;;
54683;SDS011;40582;53.100;6.686;2023-02-13T08:03:40;36.90;;;22.27;;
54683;SDS011;40582;53.100;6.686;2023-02-13T08:06:07;30.20;;;20.92;;
54683;SDS011;40582;53.100;6.686;2023-02-13T08:08:33;36.03;;;22.85;;
54683;SDS011;40582;53.100;6.686;2023-02-13T08:11:03;32.22;;;22.10;;
54683;SDS011;40582;53.100;6.686;2023-02-13T08:13:50;33.05;;;22.08;;
54683;SDS011;40582;53.100;6.686;2023-02-13T08:16:16;36.88;;;23.08;;
54683;SDS011;40582;53.100;6.686;2023-02-13T08:18:41;33.38;;;22.15;;
54683;SDS011;40582;53.100;6.686;2023-02-13T08:21:07;32.45;;;21.88;;
54683;SDS011;40582;53.100;6.686;2023-02-13T08:23:33;36.30;;;22.45;;
54683;SDS011;40582;53.100;6.686;2023-02-13T08:25:59;33.00;;;22.58;;
54683;SDS011;40582;53.100;6.686;2023-02-13T08:28:26;36.10;;;23.92;;
54683;SDS011;40582;53.100;6.686;2023-02-13T08:30:55;41.90;;;25.88;;
54683;SDS011;40582;53.100;6.686;2023-02-13T08:33:20;41.28;;;25.80;;
54683;SDS011;40582;53.100;6.686;2023-02-13T08:35:46;47.72;;;26.92;;
54683;SDS011;40582;53.100;6.686;2023-02-13T08:38:12;37.17;;;24.67;;
54683;SDS011;40582;53.100;6.686;2023-02-13T08:40:38;32.95;;;22.75;;
54683;SDS011;40582;53.100;6.686;2023-02-13T08:43:04;34.60;;;23.10;;
54683;SDS011;40582;53.100;6.686;2023-02-13T08:45:31;35.03;;;23.90;;
54683;SDS011;40582;53.100;6.686;2023-02-13T08:47:57;35.47;;;23.50;;
54683;SDS011;40582;53.100;6.686;2023-02-13T08:50:24;34.40;;;23.40;;
54683;SDS011;40582;53.100;6.686;2023-02-13T08:52:50;36.00;;;22.65;;
54683;SDS011;40582;53.100;6.686;2023-02-13T08:55:16;34.47;;;24.63;;
54683;SDS011;40582;53.100;6.686;2023-02-13T08:57:41;37.05;;;22.73;;
54683;SDS011;40582;53.100;6.686;2023-02-13T09:00:07;37.42;;;24.45;;
54683;SDS011;40582;53.100;6.686;2023-02-13T09:02:33;35.42;;;23.38;;
54683;SDS011;40582;53.100;6.686;2023-02-13T09:04:59;37.42;;;24.45;;
54683;SDS011;40582;53.100;6.686;2023-02-13T09:07:25;38.00;;;24.00;;
54683;SDS011;40582;53.100;6.686;2023-02-13T09:09:50;35.47;;;24.40;;
54683;SDS011;40582;53.100;6.686;2023-02-13T09:12:16;34.67;;;24.30;;
54683;SDS011;40582;53.100;6.686;2023-02-13T09:14:42;31.67;;;22.48;;
54683;SDS011;40582;53.100;6.686;2023-02-13T09:17:07;35.35;;;24.27;;
54683;SDS011;40582;53.100;6.686;2023-02-13T09:19:33;40.22;;;25.23;;
54683;SDS011;40582;53.100;6.686;2023-02-13T09:21:58;36.15;;;25.08;;
54683;SDS011;40582;53.100;6.686;2023-02-13T09:24:24;33.90;;;23.95;;
54683;SDS011;40582;53.100;6.686;2023-02-13T09:26:50;36.58;;;23.92;;
54683;SDS011;40582;53.100;6.686;2023-02-13T09:29:16;35.30;;;23.58;;
54683;SDS011;40582;53.100;6.686;2023-02-13T09:31:41;35.25;;;24.25;;
54683;SDS011;40582;53.100;6.686;2023-02-13T09:34:07;31.20;;;22.13;;
54683;SDS011;40582;53.100;6.686;2023-02-13T09:36:33;40.85;;;24.95;;
54683;SDS011;40582;53.100;6.686;2023-02-13T09:39:00;38.78;;;22.75;;
54683;SDS011;40582;53.100;6.686;2023-02-13T09:44:05;36.17;;;24.00;;
54683;SDS011;40582;53.100;6.686;2023-02-13T09:47:02;33.88;;;22.73;;
54683;SDS011;40582;53.100;6.686;2023-02-13T09:49:32;36.78;;;24.83;;
54683;SDS011;40582;53.100;6.686;2023-02-13T09:52:01;34.97;;;23.35;;
54683;SDS011;40582;53.100;6.686;2023-02-13T09:54:26;32.80;;;23.73;;
54683;SDS011;40582;53.100;6.686;2023-02-13T10:02:16;35.70;;;23.65;;
54683;SDS011;40582;53.100;6.686;2023-02-13T10:05:08;40.10;;;24.73;;
54683;SDS011;40582;53.100;6.686;2023-02-13T10:15:47;38.83;;;28.00;;
54683;SDS011;40582;53.100;6.686;2023-02-13T10:18:21;46.45;;;29.00;;
54683;SDS011;40582;53.100;6.686;2023-02-13T10:20:57;40.97;;;29.10;;
54683;SDS011;40582;53.100;6.686;2023-02-13T10:23:38;39.10;;;26.92;;
54683;SDS011;40582;53.100;6.686;2023-02-13T10:26:10;44.08;;;30.05;;
54683;SDS011;40582;53.100;6.686;2023-02-13T10:31:40;42.75;;;28.10;;
54683;SDS011;40582;53.100;6.686;2023-02-13T10:34:11;50.53;;;28.42;;
54683;SDS011;40582;53.100;6.686;2023-02-13T10:36:41;41.08;;;27.85;;
54683;SDS011;40582;53.100;6.686;2023-02-13T10:39:21;43.35;;;27.52;;
54683;SDS011;40582;53.100;6.686;2023-02-13T10:42:15;37.45;;;25.95;;
54683;SDS011;40582;53.100;6.686;2023-02-13T10:50:35;34.70;;;25.00;;
54683;SDS011;40582;53.100;6.686;2023-02-13T10:53:55;37.42;;;25.35;;
54683;SDS011;40582;53.100;6.686;2023-02-13T11:01:41;35.88;;;24.27;;
54683;SDS011;40582;53.100;6.686;2023-02-13T11:04:19;34.88;;;23.95;;
54683;SDS011;40582;53.100;6.686;2023-02-13T11:09:20;35.65;;;23.98;;
54683;SDS011;40582;53.100;6.686;2023-02-13T11:11:46;38.20;;;23.95;;
54683;SDS011;40582;53.100;6.686;2023-02-13T11:14:13;34.33;;;23.33;;
54683;SDS011;40582;53.100;6.686;2023-02-13T11:19:15;37.08;;;24.55;;
54683;SDS011;40582;53.100;6.686;2023-02-13T11:21:46;37.22;;;24.30;;
54683;SDS011;40582;53.100;6.686;2023-02-13T11:24:17;38.38;;;24.70;;
54683;SDS011;40582;53.100;6.686;2023-02-13T11:26:48;35.30;;;24.38;;
54683;SDS011;40582;53.100;6.686;2023-02-13T11:29:21;33.90;;;24.20;;
54683;SDS011;40582;53.100;6.686;2023-02-13T11:32:00;35.53;;;23.77;;
54683;SDS011;40582;53.100;6.686;2023-02-13T11:34:26;34.83;;;24.10;;
54683;SDS011;40582;53.100;6.686;2023-02-13T11:37:17;38.45;;;24.83;;
54683;SDS011;40582;53.100;6.686;2023-02-13T11:39:43;38.47;;;23.80;;
54683;SDS011;40582;53.100;6.686;2023-02-13T11:42:18;35.75;;;25.17;;
54683;SDS011;40582;53.100;6.686;2023-02-13T11:47:15;34.42;;;24.60;;
54683;SDS011;40582;53.100;6.686;2023-02-13T11:52:31;35.70;;;23.75;;
54683;SDS011;40582;53.100;6.686;2023-02-13T11:55:01;40.17;;;24.30;;
54683;SDS011;40582;53.100;6.686;2023-02-13T12:00:41;35.88;;;23.02;;
54683;SDS011;40582;53.100;6.686;2023-02-13T12:03:27;37.60;;;22.73;;
54683;SDS011;40582;53.100;6.686;2023-02-13T12:06:04;31.95;;;22.38;;
54683;SDS011;40582;53.100;6.686;2023-02-13T12:08:40;35.03;;;23.27;;
54683;SDS011;40582;53.100;6.686;2023-02-13T12:11:27;32.67;;;23.45;;
54683;SDS011;40582;53.100;6.686;2023-02-13T12:13:55;34.15;;;24.23;;
54683;SDS011;40582;53.100;6.686;2023-02-13T12:16:39;31.30;;;23.50;;
54683;SDS011;40582;53.100;6.686;2023-02-13T12:19:06;32.30;;;23.80;;
54683;SDS011;40582;53.100;6.686;2023-02-13T12:26:49;40.53;;;23.95;;
54683;SDS011;40582;53.100;6.686;2023-02-13T12:32:16;32.22;;;23.15;;
54683;SDS011;40582;53.100;6.686;2023-02-13T12:46:08;34.90;;;23.88;;
54683;SDS011;40582;53.100;6.686;2023-02-13T12:51:55;32.45;;;23.48;;
54683;SDS011;40582;53.100;6.686;2023-02-13T12:55:08;33.08;;;22.73;;
54683;SDS011;40582;53.100;6.686;2023-02-13T13:00:39;34.22;;;23.00;;
54683;SDS011;40582;53.100;6.686;2023-02-13T13:11:34;31.88;;;22.33;;
54683;SDS011;40582;53.100;6.686;2023-02-13T13:14:26;32.43;;;22.33;;
54683;SDS011;40582;53.100;6.686;2023-02-13T13:22:32;33.13;;;23.30;;
54683;SDS011;40582;53.100;6.686;2023-02-13T13:27:50;31.35;;;23.13;;
54683;SDS011;40582;53.100;6.686;2023-02-13T13:32:55;33.63;;;23.63;;
54683;SDS011;40582;53.100;6.686;2023-02-13T13:35:26;36.08;;;24.15;;
54683;SDS011;40582;53.100;6.686;2023-02-13T13:37:55;36.83;;;24.48;;
54683;SDS011;40582;53.100;6.686;2023-02-13T13:40:50;31.92;;;23.88;;
54683;SDS011;40582;53.100;6.686;2023-02-13T13:47:43;36.63;;;24.85;;
54683;SDS011;40582;53.100;6.686;2023-02-13T13:49:45;33.55;;;23.90;;
54683;SDS011;40582;53.100;6.686;2023-02-13T13:52:33;34.65;;;23.85;;
54683;SDS011;40582;53.100;6.686;2023-02-13T13:55:01;33.63;;;24.98;;
54683;SDS011;40582;53.100;6.686;2023-02-13T14:02:42;41.58;;;24.95;;
54683;SDS011;40582;53.100;6.686;2023-02-13T14:12:03;38.47;;;25.42;;
54683;SDS011;40582;53.100;6.686;2023-02-13T14:16:53;37.30;;;25.48;;
54683;SDS011;40582;53.100;6.686;2023-02-13T14:19:27;38.55;;;24.65;;
54683;SDS011;40582;53.100;6.686;2023-02-13T14:25:00;35.75;;;24.80;;
54683;SDS011;40582;53.100;6.686;2023-02-13T14:27:35;32.60;;;22.92;;
54683;SDS011;40582;53.100;6.686;2023-02-13T14:32:52;33.90;;;23.85;;
54683;SDS011;40582;53.100;6.686;2023-02-13T14:35:22;33.28;;;24.27;;
54683;SDS011;40582;53.100;6.686;2023-02-13T14:37:52;35.75;;;24.35;;
54683;SDS011;40582;53.100;6.686;2023-02-13T14:42:50;33.42;;;24.00;;
54683;SDS011;40582;53.100;6.686;2023-02-13T14:45:24;31.85;;;23.15;;
54683;SDS011;40582;53.100;6.686;2023-02-13T14:47:54;33.30;;;23.60;;
54683;SDS011;40582;53.100;6.686;2023-02-13T14:50:29;34.75;;;22.75;;
54683;SDS011;40582;53.100;6.686;2023-02-13T14:53:06;35.08;;;25.05;;
54683;SDS011;40582;53.100;6.686;2023-02-13T14:55:41;34.72;;;22.77;;
54683;SDS011;40582;53.100;6.686;2023-02-13T14:58:14;32.30;;;24.13;;
54683;SDS011;40582;53.100;6.686;2023-02-13T15:01:33;37.50;;;23.05;;
54683;SDS011;40582;53.100;6.686;2023-02-13T15:03:48;34.03;;;24.35;;
54683;SDS011;40582;53.100;6.686;2023-02-13T15:06:23;34.90;;;25.42;;
54683;SDS011;40582;53.100;6.686;2023-02-13T15:08:53;36.33;;;24.48;;
54683;SDS011;40582;53.100;6.686;2023-02-13T15:17:19;38.25;;;24.92;;
54683;SDS011;40582;53.100;6.686;2023-02-13T15:19:43;36.92;;;25.63;;
54683;SDS011;40582;53.100;6.686;2023-02-13T15:22:31;33.75;;;24.58;;
54683;SDS011;40582;53.100;6.686;2023-02-13T15:25:00;37.80;;;25.30;;
54683;SDS011;40582;53.100;6.686;2023-02-13T15:27:33;35.53;;;25.05;;
54683;SDS011;40582;53.100;6.686;2023-02-13T15:32:42;32.75;;;25.02;;
54683;SDS011;40582;53.100;6.686;2023-02-13T15:35:20;32.78;;;24.85;;
54683;SDS011;40582;53.100;6.686;2023-02-13T15:37:54;35.10;;;25.20;;
54683;SDS011;40582;53.100;6.686;2023-02-13T15:42:47;35.22;;;25.40;;
54683;SDS011;40582;53.100;6.686;2023-02-13T15:45:14;38.15;;;26.00;;
54683;SDS011;40582;53.100;6.686;2023-02-13T15:47:42;38.13;;;25.83;;
54683;SDS011;40582;53.100;6.686;2023-02-13T15:52:42;37.80;;;27.55;;
54683;SDS011;40582;53.100;6.686;2023-02-13T15:55:22;36.85;;;27.15;;
54683;SDS011;40582;53.100;6.686;2023-02-13T15:57:50;35.38;;;26.38;;
54683;SDS011;40582;53.100;6.686;2023-02-13T16:00:22;36.58;;;26.80;;
54683;SDS011;40582;53.100;6.686;2023-02-13T16:02:53;35.03;;;26.92;;
54683;SDS011;40582;53.100;6.686;2023-02-13T16:05:20;36.22;;;26.25;;
54683;SDS011;40582;53.100;6.686;2023-02-13T16:07:52;38.67;;;27.00;;
54683;SDS011;40582;53.100;6.686;2023-02-13T16:10:26;38.67;;;28.13;;
54683;SDS011;40582;53.100;6.686;2023-02-13T16:12:57;40.28;;;27.15;;
54683;SDS011;40582;53.100;6.686;2023-02-13T16:15:28;39.60;;;26.35;;
54683;SDS011;40582;53.100;6.686;2023-02-13T16:17:56;37.90;;;26.35;;
54683;SDS011;40582;53.100;6.686;2023-02-13T16:20:23;37.28;;;27.88;;
54683;SDS011;40582;53.100;6.686;2023-02-13T16:22:51;36.70;;;27.65;;
54683;SDS011;40582;53.100;6.686;2023-02-13T16:25:28;37.17;;;26.48;;
54683;SDS011;40582;53.100;6.686;2023-02-13T16:27:57;45.75;;;28.45;;
54683;SDS011;40582;53.100;6.686;2023-02-13T16:30:35;43.63;;;28.23;;
54683;SDS011;40582;53.100;6.686;2023-02-13T16:38:38;43.28;;;27.35;;
54683;SDS011;40582;53.100;6.686;2023-02-13T16:49:15;38.53;;;27.88;;
54683;SDS011;40582;53.100;6.686;2023-02-13T16:54:21;55.67;;;40.03;;
54683;SDS011;40582;53.100;6.686;2023-02-13T17:02:00;45.50;;;32.75;;
54683;SDS011;40582;53.100;6.686;2023-02-13T17:04:34;43.25;;;30.42;;
54683;SDS011;40582;53.100;6.686;2023-02-13T17:07:03;45.83;;;31.70;;
54683;SDS011;40582;53.100;6.686;2023-02-13T17:09:29;39.90;;;28.90;;
54683;SDS011;40582;53.100;6.686;2023-02-13T17:11:55;43.17;;;28.90;;
54683;SDS011;40582;53.100;6.686;2023-02-13T17:14:20;39.63;;;29.83;;
54683;SDS011;40582;53.100;6.686;2023-02-13T17:16:46;39.58;;;28.90;;
54683;SDS011;40582;53.100;6.686;2023-02-13T17:19:12;45.38;;;27.77;;
54683;SDS011;40582;53.100;6.686;2023-02-13T17:21:38;43.55;;;29.75;;
54683;SDS011;40582;53.100;6.686;2023-02-13T17:24:04;43.38;;;31.33;;
54683;SDS011;40582;53.100;6.686;2023-02-13T17:26:32;48.78;;;35.60;;
54683;SDS011;40582;53.100;6.686;2023-02-13T17:28:58;51.72;;;36.90;;
54683;SDS011;40582;53.100;6.686;2023-02-13T17:31:23;59.58;;;37.10;;
54683;SDS011;40582;53.100;6.686;2023-02-13T17:33:49;50.58;;;35.00;;
54683;SDS011;40582;53.100;6.686;2023-02-13T17:36:15;49.55;;;33.33;;
54683;SDS011;40582;53.100;6.686;2023-02-13T17:38:40;49.85;;;34.75;;
54683;SDS011;40582;53.100;6.686;2023-02-13T17:41:13;47.83;;;33.13;;
54683;SDS011;40582;53.100;6.686;2023-02-13T17:43:39;50.80;;;35.03;;
54683;SDS011;40582;53.100;6.686;2023-02-13T17:46:05;51.10;;;34.10;;
54683;SDS011;40582;53.100;6.686;2023-02-13T17:48:30;50.03;;;35.17;;
54683;SDS011;40582;53.100;6.686;2023-02-13T17:50:56;52.85;;;37.38;;
54683;SDS011;40582;53.100;6.686;2023-02-13T17:53:24;54.90;;;37.85;;
54683;SDS011;40582;53.100;6.686;2023-02-13T17:55:53;50.28;;;35.40;;
54683;SDS011;40582;53.100;6.686;2023-02-13T17:58:19;48.28;;;34.30;;
54683;SDS011;40582;53.100;6.686;2023-02-13T18:00:45;46.30;;;33.53;;